createdAt,value
2023-03-10T00:01:19.685Z,81.21
2023-03-10T00:06:14.131Z,81.90
2023-03-10T00:11:07.373Z,81.85
2023-03-10T00:15:59.364Z,82.40
2023-03-10T00:20:56.380Z,82.30
2023-03-10T00:25:56.636Z,82.63
2023-03-10T00:31:11.553Z,82.18
2023-03-10T00:36:10.033Z,81.56
2023-03-10T00:41:04.391Z,81.37
2023-03-10T00:45:56.228Z,81.05
2023-03-10T00:50:48.609Z,81.71
2023-03-10T00:55:40.308Z,82.46
2023-03-10T01:00:32.816Z,83.51
2023-03-10T01:05:24.555Z,84.67
2023-03-10T01:10:19.248Z,85.76
2023-03-10T01:15:12.103Z,86.19
2023-03-10T01:20:10.696Z,86.28
2023-03-10T01:25:03.160Z,86.61
2023-03-10T01:29:56.639Z,85.85
2023-03-10T01:34:49.148Z,85.01
2023-03-10T01:39:40.974Z,83.99
2023-03-10T01:44:32.702Z,84.05
2023-03-10T01:49:41.597Z,83.83
2023-03-10T01:54:59.633Z,83.48
2023-03-10T01:59:54.452Z,84.32
2023-03-10T02:04:49.126Z,84.47
2023-03-10T02:09:48.114Z,84.64
2023-03-10T02:14:40.382Z,83.26
2023-03-10T02:19:45.621Z,82.43
2023-03-10T02:25:16.526Z,81.54
2023-03-10T02:30:13.075Z,81.32
2023-03-10T02:35:08.615Z,80.67
2023-03-10T02:40:29.722Z,82.84
2023-03-10T02:45:22.514Z,84.59
2023-03-10T02:50:17.942Z,85.15
2023-03-10T02:55:15.578Z,85.52
2023-03-10T03:00:09.656Z,85.77
2023-03-10T03:05:02.209Z,85.10
2023-03-10T03:09:57.103Z,84.95
2023-03-10T03:14:48.984Z,85.99
2023-03-10T03:19:41.634Z,86.23
2023-03-10T03:24:33.406Z,86.74
2023-03-10T03:29:27.300Z,87.99
2023-03-10T03:34:20.831Z,87.98
2023-03-10T03:39:17.530Z,88.24
2023-03-10T03:44:12.665Z,87.21
2023-03-10T03:49:06.250Z,86.13
2023-03-10T03:53:58.386Z,86.29
2023-03-10T03:58:50.322Z,86.22
2023-03-10T04:03:43.988Z,85.61
2023-03-10T04:08:40.674Z,85.17
2023-03-10T04:13:32.672Z,85.26
2023-03-10T04:18:28.009Z,85.28
2023-03-10T04:23:20.766Z,85.08
2023-03-10T04:28:13.659Z,85.51
2023-03-10T04:33:05.478Z,86.03
2023-03-10T04:37:59.506Z,86.16
2023-03-10T04:42:52.790Z,86.27
2023-03-10T04:47:45.724Z,86.03
2023-03-10T04:52:37.441Z,87.01
2023-03-10T04:57:30.285Z,86.62
2023-03-10T05:02:22.118Z,85.52
2023-03-10T05:07:15.780Z,85.45
2023-03-10T05:12:12.833Z,85.06
2023-03-10T05:17:05.504Z,84.09
2023-03-10T05:21:57.561Z,82.79
2023-03-10T05:26:52.612Z,82.66
2023-03-10T05:31:44.540Z,82.20
2023-03-10T05:36:43.058Z,82.46
2023-03-10T05:41:35.967Z,82.10
2023-03-10T05:46:29.724Z,81.42
2023-03-10T05:51:23.919Z,81.31
2023-03-10T05:56:18.742Z,81.35
2023-03-10T06:01:14.336Z,81.69
2023-03-10T06:06:07.908Z,81.41
2023-03-10T06:10:59.586Z,81.70
2023-03-10T06:15:59.182Z,81.00
2023-03-10T06:20:52.367Z,81.68
2023-03-10T06:25:45.581Z,81.56
2023-03-10T06:30:37.376Z,81.79
2023-03-10T06:35:31.918Z,82.41
2023-03-10T06:40:24.299Z,82.04
2023-03-10T06:45:19.568Z,82.14
2023-03-10T06:50:12.920Z,80.81
2023-03-10T06:55:06.750Z,79.21
2023-03-10T06:59:58.382Z,78.90
2023-03-10T07:04:50.212Z,77.44
2023-03-10T07:09:42.040Z,77.55
2023-03-10T07:14:35.735Z,76.85
2023-03-10T07:19:27.390Z,76.74
2023-03-10T07:24:19.799Z,77.28
2023-03-10T07:29:11.710Z,77.20
2023-03-10T07:34:04.284Z,77.08
2023-03-10T07:38:56.484Z,77.16
2023-03-10T07:43:53.417Z,77.47
2023-03-10T07:48:45.176Z,77.67
2023-03-10T07:53:37.199Z,76.74
2023-03-10T07:58:29.018Z,76.23
2023-03-10T08:03:20.736Z,75.94
2023-03-10T08:08:12.464Z,73.76
2023-03-10T08:13:06.168Z,59.87
2023-03-10T08:17:57.911Z,57.16
2023-03-10T08:22:49.580Z,58.75
2023-03-10T08:27:41.620Z,60.45
2023-03-10T08:32:34.457Z,54.35
2023-03-10T08:37:26.272Z,46.19
2023-03-10T08:42:18.010Z,44.22
2023-03-10T08:47:09.790Z,44.14
2023-03-10T08:52:01.937Z,47.04
2023-03-10T08:56:53.862Z,49.36
2023-03-10T09:01:46.567Z,51.32
2023-03-10T09:06:38.801Z,51.37
2023-03-10T09:11:32.571Z,51.12
2023-03-10T09:16:25.323Z,51.24
2023-03-10T09:21:20.573Z,49.87
2023-03-10T09:26:12.684Z,49.14
2023-03-10T09:31:05.921Z,49.11
2023-03-10T09:36:06.419Z,49.00
2023-03-10T09:41:21.534Z,48.28
2023-03-10T09:46:51.746Z,49.30
2023-03-10T09:51:49.053Z,49.28
2023-03-10T09:56:41.272Z,48.84
2023-03-10T10:01:34.812Z,48.55
2023-03-10T10:06:32.761Z,48.31
2023-03-10T10:11:24.489Z,48.95
2023-03-10T10:16:34.813Z,50.04
2023-03-10T10:21:42.568Z,49.76
2023-03-10T10:26:34.632Z,49.14
2023-03-10T10:31:28.871Z,50.27
2023-03-10T10:36:24.515Z,50.44
2023-03-10T10:41:23.772Z,50.99
2023-03-10T10:46:23.398Z,50.49
2023-03-10T10:51:30.298Z,51.47
2023-03-10T10:56:24.194Z,53.01
2023-03-10T11:01:17.096Z,53.67
2023-03-10T11:06:32.223Z,53.06
2023-03-10T11:11:34.475Z,56.03
2023-03-10T11:16:39.789Z,61.35
2023-03-10T11:21:36.571Z,62.15
2023-03-10T11:26:44.198Z,61.35
2023-03-10T11:31:45.020Z,63.54
2023-03-10T11:36:57.571Z,66.69
2023-03-10T11:41:56.526Z,69.29
2023-03-10T11:46:50.929Z,71.75
2023-03-10T11:51:47.123Z,71.69
2023-03-10T11:56:40.594Z,73.76
2023-03-10T12:01:51.788Z,74.80
2023-03-10T12:07:01.367Z,73.86
2023-03-10T12:11:54.351Z,74.04
2023-03-10T12:16:47.963Z,73.71
2023-03-10T12:21:39.663Z,73.00
2023-03-10T12:26:59.616Z,72.77
2023-03-10T12:31:55.290Z,73.50
2023-03-10T12:36:51.955Z,72.81
2023-03-10T12:41:52.263Z,72.04
2023-03-10T12:46:54.817Z,73.40
2023-03-10T12:51:51.610Z,73.92
2023-03-10T12:56:52.797Z,73.45
2023-03-10T13:01:55.471Z,75.08
2023-03-10T13:06:49.799Z,74.66
2023-03-10T13:11:45.240Z,76.41
2023-03-10T13:16:36.928Z,77.83
2023-03-10T13:21:34.761Z,79.36
2023-03-10T13:26:27.840Z,78.25
2023-03-10T13:31:49.744Z,79.72
2023-03-10T13:36:42.533Z,80.25
2023-03-10T13:41:37.386Z,79.93
2023-03-10T13:46:32.118Z,80.99
2023-03-10T13:51:31.913Z,82.15
2023-03-10T13:56:38.985Z,83.96
2023-03-10T14:01:34.771Z,82.54
2023-03-10T14:06:28.825Z,81.12
2023-03-10T14:11:32.823Z,78.91
2023-03-10T14:16:47.530Z,76.23
2023-03-10T14:21:52.440Z,74.16
2023-03-10T14:26:50.505Z,72.70
2023-03-10T14:31:43.637Z,72.71
2023-03-10T14:36:35.848Z,72.30
2023-03-10T14:41:27.882Z,72.29
2023-03-10T14:46:19.812Z,70.97
2023-03-10T14:51:19.984Z,70.41
2023-03-10T14:56:21.591Z,70.79
2023-03-10T15:01:14.032Z,69.41
2023-03-10T15:06:06.816Z,68.71
2023-03-10T15:10:59.276Z,68.36
2023-03-10T15:15:51.698Z,69.35
2023-03-10T15:20:43.484Z,69.70
2023-03-10T15:25:35.254Z,69.44
2023-03-10T15:30:32.930Z,69.72
2023-03-10T15:35:25.266Z,70.28
2023-03-10T15:40:19.710Z,69.84
2023-03-10T15:45:12.291Z,68.40
2023-03-10T15:50:05.436Z,68.96
2023-03-10T15:54:59.405Z,69.13
2023-03-10T15:59:51.254Z,68.86
2023-03-10T16:04:46.485Z,69.40
2023-03-10T16:09:39.176Z,69.60
2023-03-10T16:14:31.064Z,70.12
2023-03-10T16:19:23.327Z,72.12
2023-03-10T16:24:15.864Z,73.26
2023-03-10T16:29:08.896Z,74.94
2023-03-10T16:34:00.642Z,76.10
2023-03-10T16:38:53.780Z,76.67
2023-03-10T16:43:47.850Z,77.00
2023-03-10T16:48:45.719Z,80.94
2023-03-10T16:53:37.628Z,77.82
2023-03-10T16:58:29.336Z,81.33
2023-03-10T17:03:21.860Z,82.39
2023-03-10T17:08:13.583Z,83.46
2023-03-10T17:13:05.268Z,82.14
2023-03-10T17:17:56.914Z,81.87
2023-03-10T17:22:48.784Z,83.53
2023-03-10T17:27:44.454Z,84.06
2023-03-10T17:32:37.904Z,85.58
2023-03-10T17:37:30.675Z,84.57
2023-03-10T17:42:23.877Z,85.45
2023-03-10T17:47:15.592Z,84.33
2023-03-10T17:52:07.897Z,84.89
2023-03-10T17:56:59.597Z,84.26
2023-03-10T18:01:51.948Z,83.55
2023-03-10T18:06:44.309Z,82.53
2023-03-10T18:11:36.885Z,82.68
2023-03-10T18:16:32.302Z,81.90
2023-03-10T18:21:25.342Z,81.14
2023-03-10T18:26:20.291Z,81.64
2023-03-10T18:31:21.401Z,80.75
2023-03-10T18:36:14.732Z,81.39
2023-03-10T18:41:07.367Z,80.76
2023-03-10T18:45:59.314Z,80.17
2023-03-10T18:50:52.395Z,79.75
2023-03-10T18:55:44.029Z,79.22
2023-03-10T19:00:37.665Z,79.30
2023-03-10T19:05:29.326Z,78.44
2023-03-10T19:10:22.641Z,79.57
2023-03-10T19:15:16.117Z,79.72
2023-03-10T19:20:12.917Z,80.81
2023-03-10T19:25:07.127Z,80.40
2023-03-10T19:29:59.088Z,78.65
2023-03-10T19:34:51.114Z,77.95
2023-03-10T19:39:44.673Z,78.42
2023-03-10T19:44:40.166Z,78.39
2023-03-10T19:49:35.398Z,79.68
2023-03-10T19:54:27.401Z,79.61
2023-03-10T19:59:19.855Z,78.66
2023-03-10T20:04:11.787Z,78.20
2023-03-10T20:09:09.047Z,78.62
2023-03-10T20:14:00.738Z,79.83
2023-03-10T20:18:53.327Z,81.08
2023-03-10T20:23:47.643Z,81.65
2023-03-10T20:28:42.019Z,82.33
2023-03-10T20:33:35.290Z,81.44
2023-03-10T20:38:27.947Z,82.10
2023-03-10T20:43:21.351Z,80.69
2023-03-10T20:48:13.121Z,80.42
2023-03-10T20:53:05.333Z,80.40
2023-03-10T20:58:00.926Z,81.71
2023-03-10T21:02:56.985Z,81.91
2023-03-10T21:07:50.583Z,82.04
2023-03-10T21:12:43.155Z,80.50
2023-03-10T21:17:34.890Z,80.68
2023-03-10T21:22:30.319Z,79.63
2023-03-10T21:27:22.936Z,79.81
2023-03-10T21:32:14.653Z,78.72
2023-03-10T21:37:08.591Z,78.54
2023-03-10T21:42:00.373Z,78.34
2023-03-10T21:46:52.939Z,78.74
2023-03-10T21:51:44.938Z,78.59
2023-03-10T21:56:37.405Z,77.99
2023-03-10T22:01:29.224Z,78.49
2023-03-10T22:06:21.026Z,76.02
2023-03-10T22:11:13.437Z,78.92
2023-03-10T22:16:10.565Z,77.96
2023-03-10T22:21:02.269Z,78.52
2023-03-10T22:25:53.907Z,78.45
2023-03-10T22:30:45.886Z,78.70
2023-03-10T22:35:40.497Z,78.02
2023-03-10T22:40:32.374Z,76.74
2023-03-10T22:45:26.929Z,75.04
2023-03-10T22:50:23.480Z,75.71
2023-03-10T22:55:18.079Z,74.68
2023-03-10T23:00:15.045Z,74.76
2023-03-10T23:05:08.129Z,75.06
2023-03-10T23:10:00.179Z,74.45
2023-03-10T23:14:52.899Z,74.14
2023-03-10T23:19:44.626Z,73.79
2023-03-10T23:24:37.089Z,72.87
2023-03-10T23:29:28.807Z,72.40
2023-03-10T23:34:20.537Z,72.50
2023-03-10T23:39:13.531Z,71.93
2023-03-10T23:44:06.747Z,72.10
2023-03-10T23:48:58.442Z,71.19
2023-03-10T23:53:52.492Z,71.24
2023-03-10T23:58:44.189Z,71.66
